createdAt,value
2022-11-25T00:01:54.977Z,-0.72
2022-11-25T00:04:37.118Z,-0.71
2022-11-25T00:07:09.920Z,-0.69
2022-11-25T00:09:42.478Z,-0.68
2022-11-25T00:12:18.940Z,-0.69
2022-11-25T00:14:51.979Z,-0.68
2022-11-25T00:17:25.367Z,-0.69
2022-11-25T00:20:01.811Z,-0.69
2022-11-25T00:22:34.590Z,-0.68
2022-11-25T00:25:07.488Z,-0.67
2022-11-25T00:27:41.379Z,-0.67
2022-11-25T00:30:15.428Z,-0.67
2022-11-25T00:32:48.303Z,-0.66
2022-11-25T00:35:21.441Z,-0.65
2022-11-25T00:37:53.224Z,-0.62
2022-11-25T00:40:24.991Z,-0.62
2022-11-25T00:43:14.326Z,-0.62
2022-11-25T00:45:46.288Z,-0.65
2022-11-25T00:48:18.183Z,-0.67
2022-11-25T00:50:50.828Z,-0.68
2022-11-25T00:53:23.336Z,-0.69
2022-11-25T00:56:12.837Z,-0.69
2022-11-25T00:58:45.656Z,-0.67
2022-11-25T01:01:20.507Z,-0.65
2022-11-25T01:03:55.119Z,-0.62
2022-11-25T01:06:31.377Z,-0.64
2022-11-25T01:09:06.108Z,-0.62
2022-11-25T01:11:39.546Z,-0.59
2022-11-25T01:14:11.541Z,-0.59
2022-11-25T01:16:43.469Z,-0.59
2022-11-25T01:19:15.751Z,-0.59
2022-11-25T01:21:47.974Z,-0.60
2022-11-25T01:24:20.531Z,-0.63
2022-11-25T01:26:52.248Z,-0.65
2022-11-25T01:29:24.269Z,-0.65
2022-11-25T01:31:57.398Z,-0.66
2022-11-25T01:34:32.155Z,-0.66
2022-11-25T01:37:03.974Z,-0.68
2022-11-25T01:39:35.795Z,-0.69
2022-11-25T01:42:07.601Z,-0.71
2022-11-25T01:44:42.658Z,-0.72
2022-11-25T01:47:19.763Z,-0.73
2022-11-25T01:49:54.780Z,-0.73
2022-11-25T01:52:29.992Z,-0.70
2022-11-25T01:55:05.357Z,-0.68
2022-11-25T01:57:39.132Z,-0.67
2022-11-25T02:00:13.149Z,-0.65
2022-11-25T02:02:43.693Z,-0.63
2022-11-25T02:05:21.279Z,-0.62
2022-11-25T02:07:54.449Z,-0.60
2022-11-25T02:10:27.187Z,-0.60
2022-11-25T02:13:02.160Z,-0.61
2022-11-25T02:15:36.250Z,-0.59
2022-11-25T02:18:08.554Z,-0.60
2022-11-25T02:20:41.678Z,-0.61
2022-11-25T02:23:25.740Z,-0.60
2022-11-25T02:25:57.676Z,-0.59
2022-11-25T02:28:31.689Z,-0.57
2022-11-25T02:31:03.604Z,-0.55
2022-11-25T02:33:35.552Z,-0.52
2022-11-25T02:36:09.577Z,-0.50
2022-11-25T02:38:40.517Z,-0.48
2022-11-25T02:41:14.861Z,-0.48
2022-11-25T02:43:46.677Z,-0.47
2022-11-25T02:46:22.558Z,-0.46
2022-11-25T02:49:11.577Z,-0.44
2022-11-25T02:51:45.959Z,-0.42
2022-11-25T02:54:18.288Z,-0.40
2022-11-25T02:56:50.227Z,-0.38
2022-11-25T02:59:21.940Z,-0.36
2022-11-25T03:01:54.232Z,-0.35
2022-11-25T03:04:26.040Z,-0.35
2022-11-25T03:06:58.006Z,-0.33
2022-11-25T03:09:31.069Z,-0.32
2022-11-25T03:12:23.289Z,-0.33
2022-11-25T03:14:55.072Z,-0.32
2022-11-25T03:17:27.121Z,-0.32
2022-11-25T03:19:59.156Z,-0.32
2022-11-25T03:22:31.282Z,-0.32
2022-11-25T03:25:03.015Z,-0.32
2022-11-25T03:27:36.048Z,-0.31
2022-11-25T03:30:16.524Z,-0.30
2022-11-25T03:32:48.663Z,-0.30
2022-11-25T03:35:20.607Z,-0.30
2022-11-25T03:37:53.122Z,-0.30
2022-11-25T03:40:25.145Z,-0.31
2022-11-25T03:42:57.312Z,-0.32
2022-11-25T03:45:29.931Z,-0.32
2022-11-25T03:48:01.922Z,-0.32
2022-11-25T03:50:33.616Z,-0.32
2022-11-25T03:53:05.733Z,-0.33
2022-11-25T03:55:37.403Z,-0.35
2022-11-25T03:58:10.025Z,-0.35
2022-11-25T04:00:42.107Z,-0.35
2022-11-25T04:03:15.168Z,-0.36
2022-11-25T04:05:46.867Z,-0.37
2022-11-25T04:08:19.057Z,-0.39
2022-11-25T04:10:51.663Z,-0.40
2022-11-25T04:13:23.622Z,-0.41
2022-11-25T04:15:55.355Z,-0.43
2022-11-25T04:18:27.674Z,-0.43
2022-11-25T04:20:59.355Z,-0.45
2022-11-25T04:23:31.291Z,-0.46
2022-11-25T04:26:02.968Z,-0.47
2022-11-25T04:28:35.260Z,-0.48
2022-11-25T04:31:10.020Z,-0.48
2022-11-25T04:33:42.328Z,-0.48
2022-11-25T04:36:13.966Z,-0.48
2022-11-25T04:38:45.937Z,-0.47
2022-11-25T04:41:17.593Z,-0.46
2022-11-25T04:43:49.773Z,-0.46
2022-11-25T04:46:24.719Z,-0.45
2022-11-25T04:48:56.730Z,-0.45
2022-11-25T04:51:28.656Z,-0.45
2022-11-25T04:54:01.881Z,-0.45
2022-11-25T04:56:33.835Z,-0.44
2022-11-25T04:59:23.527Z,-0.44
2022-11-25T05:01:55.324Z,-0.45
2022-11-25T05:04:27.279Z,-0.48
2022-11-25T05:06:59.002Z,-0.49
2022-11-25T05:09:31.148Z,-0.49
2022-11-25T05:12:02.869Z,-0.50
2022-11-25T05:14:36.139Z,-0.52
2022-11-25T05:17:09.016Z,-0.52
2022-11-25T05:19:41.318Z,-0.51
2022-11-25T05:22:14.568Z,-0.52
2022-11-25T05:24:47.137Z,-0.51
2022-11-25T05:27:19.529Z,-0.50
2022-11-25T05:29:55.909Z,-0.49
2022-11-25T05:32:28.062Z,-0.47
2022-11-25T05:35:00.212Z,-0.46
2022-11-25T05:37:31.960Z,-0.45
2022-11-25T05:40:04.281Z,-0.44
2022-11-25T05:42:35.909Z,-0.43
2022-11-25T05:45:10.262Z,-0.41
2022-11-25T05:47:41.951Z,-0.40
2022-11-25T05:50:14.108Z,-0.40
2022-11-25T05:52:45.821Z,-0.39
2022-11-25T05:55:18.227Z,-0.39
2022-11-25T05:57:49.945Z,-0.38
2022-11-25T06:00:26.556Z,-0.37
2022-11-25T06:02:59.099Z,-0.35
2022-11-25T06:05:31.465Z,-0.33
2022-11-25T06:08:03.418Z,-0.32
2022-11-25T06:10:36.319Z,-0.31
2022-11-25T06:13:08.007Z,-0.29
2022-11-25T06:15:43.605Z,-0.27
2022-11-25T06:18:17.770Z,-0.25
2022-11-25T06:20:57.115Z,-0.25
2022-11-25T06:23:28.953Z,-0.24
2022-11-25T06:26:07.677Z,-0.24
2022-11-25T06:28:39.439Z,-0.24
2022-11-25T06:31:12.919Z,-0.27
2022-11-25T06:33:47.224Z,-0.28
2022-11-25T06:36:20.627Z,-0.28
2022-11-25T06:38:54.163Z,-0.25
2022-11-25T06:41:26.088Z,-0.23
2022-11-25T06:43:58.308Z,-0.22
2022-11-25T06:46:30.064Z,-0.22
2022-11-25T06:49:02.742Z,-0.22
2022-11-25T06:51:34.672Z,-0.22
2022-11-25T06:54:07.435Z,-0.22
2022-11-25T06:56:39.685Z,-0.20
2022-11-25T06:59:11.613Z,-0.16
2022-11-25T07:01:43.974Z,-0.13
2022-11-25T07:04:16.116Z,-0.10
2022-11-25T07:06:49.918Z,-0.09
2022-11-25T07:09:22.723Z,-0.08
2022-11-25T07:11:55.293Z,-0.07
2022-11-25T07:14:27.174Z,-0.08
2022-11-25T07:16:59.106Z,-0.06
2022-11-25T07:19:46.451Z,-0.06
2022-11-25T07:22:25.918Z,-0.08
2022-11-25T07:24:57.643Z,-0.10
2022-11-25T07:27:29.663Z,-0.09
2022-11-25T07:30:54.487Z,-0.10
2022-11-25T07:32:54.189Z,-0.10
2022-11-25T07:35:26.175Z,-0.06
2022-11-25T07:37:58.485Z,-0.03
2022-11-25T07:40:30.457Z,0.02
2022-11-25T07:43:02.612Z,0.04
2022-11-25T07:45:34.536Z,0.04
2022-11-25T07:48:06.811Z,0.06
2022-11-25T07:50:38.601Z,0.08
2022-11-25T07:53:10.512Z,0.11
2022-11-25T07:55:42.114Z,0.14
2022-11-25T07:58:13.987Z,0.16
2022-11-25T08:00:45.684Z,0.17
2022-11-25T08:03:17.747Z,0.18
2022-11-25T08:05:49.617Z,0.20
2022-11-25T08:08:21.534Z,0.21
2022-11-25T08:10:53.503Z,0.23
2022-11-25T08:13:25.867Z,0.27
2022-11-25T08:16:00.347Z,0.31
2022-11-25T08:18:32.783Z,0.30
2022-11-25T08:21:05.853Z,0.31
2022-11-25T08:23:39.280Z,0.33
2022-11-25T08:26:13.064Z,0.37
2022-11-25T08:28:44.940Z,0.46
2022-11-25T08:31:18.328Z,0.50
2022-11-25T08:33:53.015Z,0.53
2022-11-25T08:36:26.531Z,0.58
2022-11-25T08:39:12.621Z,0.60
2022-11-25T08:41:54.796Z,0.61
2022-11-25T08:44:28.925Z,0.60
2022-11-25T08:47:04.499Z,0.60
2022-11-25T08:49:41.498Z,0.59
2022-11-25T08:52:14.307Z,0.60
2022-11-25T08:54:46.176Z,0.61
2022-11-25T08:57:19.571Z,0.62
2022-11-25T08:59:52.223Z,0.62
2022-11-25T09:02:24.402Z,0.61
2022-11-25T09:04:57.394Z,0.61
2022-11-25T09:07:31.003Z,0.61
2022-11-25T09:10:03.552Z,0.61
2022-11-25T09:12:36.030Z,0.62
2022-11-25T09:15:11.138Z,0.62
2022-11-25T09:17:42.941Z,0.63
2022-11-25T09:20:17.979Z,0.64
2022-11-25T09:22:50.581Z,0.65
2022-11-25T09:25:24.996Z,0.66
2022-11-25T09:28:00.607Z,0.66
2022-11-25T09:30:35.350Z,0.65
2022-11-25T09:33:07.273Z,0.64
2022-11-25T09:35:39.410Z,0.63
2022-11-25T09:38:13.981Z,0.61
2022-11-25T09:40:54.330Z,0.59
2022-11-25T09:43:54.447Z,0.57
2022-11-25T09:46:47.717Z,0.55
2022-11-25T09:49:39.190Z,0.53
2022-11-25T09:52:20.571Z,0.53
2022-11-25T09:54:58.552Z,0.52
2022-11-25T09:57:44.498Z,0.52
2022-11-25T10:00:19.729Z,0.51
2022-11-25T10:03:00.972Z,0.51
2022-11-25T10:05:38.892Z,0.50
2022-11-25T10:08:15.986Z,0.49
2022-11-25T10:10:51.186Z,0.48
2022-11-25T10:13:38.942Z,0.48
2022-11-25T10:16:19.606Z,0.47
2022-11-25T10:18:57.618Z,0.47
2022-11-25T10:21:33.490Z,0.47
2022-11-25T10:24:10.121Z,0.47
2022-11-25T10:26:45.628Z,0.48
2022-11-25T10:29:26.337Z,0.49
2022-11-25T10:32:13.284Z,0.49
2022-11-25T10:34:48.298Z,0.49
2022-11-25T10:37:27.026Z,0.50
2022-11-25T10:39:58.865Z,0.51
2022-11-25T10:42:32.712Z,0.52
2022-11-25T10:45:09.188Z,0.53
2022-11-25T10:47:52.050Z,0.55
2022-11-25T10:50:34.196Z,0.56
2022-11-25T10:53:14.963Z,0.57
2022-11-25T10:56:08.615Z,0.57
2022-11-25T10:58:42.514Z,0.56
2022-11-25T11:01:22.898Z,0.54
2022-11-25T11:03:57.914Z,0.53
2022-11-25T11:06:38.911Z,0.54
2022-11-25T11:09:34.708Z,0.56
2022-11-25T11:12:19.685Z,0.57
2022-11-25T11:14:52.025Z,0.59
2022-11-25T11:17:37.156Z,0.60
2022-11-25T11:20:26.456Z,0.60
2022-11-25T11:23:09.204Z,0.60
2022-11-25T11:25:43.452Z,0.61
2022-11-25T11:28:35.142Z,0.62
2022-11-25T11:31:09.429Z,0.64
2022-11-25T11:33:44.635Z,0.64
2022-11-25T11:36:49.996Z,0.64
2022-11-25T11:39:41.193Z,0.63
2022-11-25T11:42:20.784Z,0.62
2022-11-25T11:45:05.180Z,0.60
2022-11-25T11:47:37.958Z,0.58
2022-11-25T11:50:26.807Z,0.55
2022-11-25T11:53:02.269Z,0.52
2022-11-25T11:56:05.553Z,0.50
2022-11-25T11:58:51.724Z,0.50
2022-11-25T12:01:41.856Z,0.50
2022-11-25T12:04:19.182Z,0.51
2022-11-25T12:07:09.985Z,0.51
2022-11-25T12:09:50.057Z,0.51
2022-11-25T12:12:22.353Z,0.51
2022-11-25T12:15:07.458Z,0.51
2022-11-25T12:17:45.740Z,0.52
2022-11-25T12:20:29.699Z,0.52
2022-11-25T12:23:01.976Z,0.52
2022-11-25T12:25:38.763Z,0.51
2022-11-25T12:28:15.293Z,0.51
2022-11-25T12:31:00.491Z,0.52
2022-11-25T12:33:44.035Z,0.53
2022-11-25T12:36:19.635Z,0.52
2022-11-25T12:38:57.837Z,0.53
2022-11-25T12:41:38.744Z,0.53
2022-11-25T12:44:16.332Z,0.55
2022-11-25T12:49:54.540Z,0.58
2022-11-25T12:52:45.511Z,0.59
2022-11-25T12:55:26.655Z,0.59
2022-11-25T12:58:43.065Z,0.59
2022-11-25T13:01:55.046Z,0.59
2022-11-25T13:05:39.124Z,0.60
2022-11-25T13:08:41.160Z,0.60
2022-11-25T13:11:37.777Z,0.61
2022-11-25T13:14:30.686Z,0.62
2022-11-25T13:17:05.014Z,0.62
2022-11-25T13:19:38.346Z,0.63
2022-11-25T13:22:29.965Z,0.64
2022-11-25T13:25:05.516Z,0.64
2022-11-25T13:28:01.937Z,0.65
2022-11-25T13:30:44.093Z,0.65
2022-11-25T13:34:04.807Z,0.65
2022-11-25T13:36:51.767Z,0.65
2022-11-25T13:39:56.543Z,0.65
2022-11-25T13:42:34.005Z,0.67
2022-11-25T13:45:34.980Z,0.68
2022-11-25T13:48:16.884Z,0.68
2022-11-25T13:51:10.794Z,0.70
2022-11-25T13:53:54.201Z,0.70
2022-11-25T13:56:31.351Z,0.72
2022-11-25T13:59:52.810Z,0.72
2022-11-25T14:06:02.870Z,0.74
2022-11-25T14:08:43.658Z,0.76
2022-11-25T14:11:37.227Z,0.76
2022-11-25T14:14:37.594Z,0.76
2022-11-25T14:17:37.041Z,0.75
2022-11-25T14:20:21.585Z,0.75
2022-11-25T14:23:43.002Z,0.76
2022-11-25T14:26:47.716Z,0.76
2022-11-25T14:29:17.221Z,0.76
2022-11-25T14:31:53.611Z,0.76
2022-11-25T14:34:33.362Z,0.76
2022-11-25T14:37:18.368Z,0.74
2022-11-25T14:40:27.034Z,0.74
2022-11-25T14:46:22.775Z,0.77
2022-11-25T14:48:55.432Z,0.76
2022-11-25T14:51:25.580Z,0.76
2022-11-25T14:53:58.444Z,0.75
2022-11-25T14:56:29.387Z,0.75
2022-11-25T14:58:58.808Z,0.75
2022-11-25T15:01:29.767Z,0.75
2022-11-25T15:04:06.429Z,0.75
2022-11-25T15:06:36.122Z,0.74
2022-11-25T15:09:12.493Z,0.75
2022-11-25T15:11:41.128Z,0.74
2022-11-25T15:14:22.025Z,0.74
2022-11-25T15:16:50.968Z,0.73
2022-11-25T15:19:22.012Z,0.72
2022-11-25T15:22:21.808Z,0.72
2022-11-25T15:24:53.274Z,0.71
2022-11-25T15:27:25.386Z,0.71
2022-11-25T15:29:55.077Z,0.70
2022-11-25T15:32:29.252Z,0.71
2022-11-25T15:35:03.248Z,0.71
2022-11-25T15:37:35.104Z,0.71
2022-11-25T15:40:36.875Z,0.70
2022-11-25T15:43:10.023Z,0.70
2022-11-25T15:45:44.903Z,0.70
2022-11-25T15:48:18.191Z,0.71
2022-11-25T15:50:46.439Z,0.72
2022-11-25T15:53:24.855Z,0.72
2022-11-25T15:56:00.717Z,0.73
2022-11-25T15:58:30.201Z,0.72
2022-11-25T16:01:06.740Z,0.72
2022-11-25T16:03:38.233Z,0.72
2022-11-25T16:06:21.285Z,0.71
2022-11-25T16:08:57.749Z,0.71
2022-11-25T16:11:30.030Z,0.72
2022-11-25T16:14:18.029Z,0.71
2022-11-25T16:16:47.086Z,0.71
2022-11-25T16:19:20.258Z,0.70
2022-11-25T16:21:54.539Z,0.69
2022-11-25T16:24:32.854Z,0.69
2022-11-25T16:27:02.402Z,0.68
2022-11-25T16:29:33.388Z,0.67
2022-11-25T16:32:02.158Z,0.66
2022-11-25T16:34:30.805Z,0.65
2022-11-25T16:36:59.260Z,0.64
2022-11-25T16:39:27.741Z,0.64
2022-11-25T16:41:58.308Z,0.63
2022-11-25T16:44:27.937Z,0.63
2022-11-25T16:46:56.972Z,0.62
2022-11-25T16:49:25.912Z,0.61
2022-11-25T16:51:54.966Z,0.60
2022-11-25T16:54:23.996Z,0.58
2022-11-25T16:56:54.169Z,0.58
2022-11-25T16:59:28.845Z,0.58
2022-11-25T17:01:57.724Z,0.57
2022-11-25T17:04:26.223Z,0.58
2022-11-25T17:07:30.484Z,0.58
2022-11-25T17:09:46.078Z,0.58
2022-11-25T17:12:21.154Z,0.57
2022-11-25T17:14:50.674Z,0.55
2022-11-25T17:17:24.484Z,0.54
2022-11-25T17:19:53.500Z,0.53
2022-11-25T17:22:24.163Z,0.52
2022-11-25T17:24:53.225Z,0.52
2022-11-25T17:27:24.231Z,0.52
2022-11-25T17:29:53.115Z,0.52
2022-11-25T17:32:22.345Z,0.52
2022-11-25T17:34:50.603Z,0.51
2022-11-25T17:37:22.249Z,0.51
2022-11-25T17:39:52.107Z,0.50
2022-11-25T17:42:25.451Z,0.50
2022-11-25T17:44:54.575Z,0.49
2022-11-25T17:47:23.190Z,0.49
2022-11-25T17:49:52.665Z,0.49
2022-11-25T17:52:21.001Z,0.49
2022-11-25T17:54:49.323Z,0.49
2022-11-25T17:57:21.085Z,0.49
2022-11-25T17:59:49.649Z,0.49
2022-11-25T18:02:21.272Z,0.48
2022-11-25T18:04:50.713Z,0.48
2022-11-25T18:07:19.445Z,0.48
2022-11-25T18:09:48.154Z,0.49
2022-11-25T18:12:18.866Z,0.51
2022-11-25T18:14:47.343Z,0.52
2022-11-25T18:17:18.243Z,0.52
2022-11-25T18:19:54.228Z,0.53
2022-11-25T18:22:24.533Z,0.53
2022-11-25T18:24:53.397Z,0.53
2022-11-25T18:27:24.414Z,0.53
2022-11-25T18:29:53.318Z,0.52
2022-11-25T18:32:23.153Z,0.52
2022-11-25T18:34:52.243Z,0.51
2022-11-25T18:37:21.832Z,0.51
2022-11-25T18:39:50.997Z,0.50
2022-11-25T18:42:25.563Z,0.50
2022-11-25T18:44:54.804Z,0.49
2022-11-25T18:47:23.481Z,0.49
2022-11-25T18:49:55.842Z,0.48
2022-11-25T18:52:26.002Z,0.48
2022-11-25T18:54:54.531Z,0.48
2022-11-25T18:57:23.211Z,0.47
2022-11-25T19:00:10.693Z,0.47
2022-11-25T19:02:42.492Z,0.47
2022-11-25T19:05:19.777Z,0.47
2022-11-25T19:07:49.143Z,0.47
2022-11-25T19:10:18.308Z,0.47
2022-11-25T19:12:51.451Z,0.47
2022-11-25T19:15:23.025Z,0.47
2022-11-25T19:17:54.819Z,0.47
2022-11-25T19:20:28.408Z,0.46
2022-11-25T19:23:06.798Z,0.45
2022-11-25T19:25:35.383Z,0.45
2022-11-25T19:28:04.163Z,0.45
2022-11-25T19:30:32.968Z,0.45
2022-11-25T19:33:02.770Z,0.46
2022-11-25T19:35:35.461Z,0.46
2022-11-25T19:38:10.601Z,0.47
2022-11-25T19:40:39.960Z,0.47
2022-11-25T19:43:08.308Z,0.48
2022-11-25T19:45:37.130Z,0.48
2022-11-25T19:48:07.971Z,0.49
2022-11-25T19:50:38.954Z,0.49
2022-11-25T19:53:14.354Z,0.48
2022-11-25T19:55:43.488Z,0.49
2022-11-25T19:58:12.693Z,0.49
2022-11-25T20:00:42.425Z,0.50
2022-11-25T20:03:16.823Z,0.49
2022-11-25T20:05:46.401Z,0.50
2022-11-25T20:08:20.458Z,0.51
2022-11-25T20:10:48.164Z,0.51
2022-11-25T20:13:16.764Z,0.51
2022-11-25T20:15:46.002Z,0.52
2022-11-25T20:18:18.220Z,0.53
2022-11-25T20:20:48.869Z,0.55
2022-11-25T20:23:23.886Z,0.56
2022-11-25T20:25:52.295Z,0.56
2022-11-25T20:28:22.253Z,0.58
2022-11-25T20:30:52.246Z,0.59
2022-11-25T20:33:24.320Z,0.61
2022-11-25T20:35:56.364Z,0.62
2022-11-25T20:38:26.366Z,0.63
2022-11-25T20:40:57.576Z,0.64
2022-11-25T20:43:29.222Z,0.66
2022-11-25T20:45:58.484Z,0.67
2022-11-25T20:48:28.269Z,0.68
2022-11-25T20:50:59.438Z,0.68
2022-11-25T20:53:30.061Z,0.68
2022-11-25T20:55:59.300Z,0.68
2022-11-25T20:58:32.356Z,0.69
2022-11-25T21:01:01.748Z,0.69
2022-11-25T21:03:30.564Z,0.70
2022-11-25T21:05:59.081Z,0.71
2022-11-25T21:08:30.292Z,0.72
2022-11-25T21:10:59.803Z,0.72
2022-11-25T21:13:29.738Z,0.73
2022-11-25T21:15:58.436Z,0.74
2022-11-25T21:18:27.090Z,0.75
2022-11-25T21:20:57.340Z,0.77
2022-11-25T21:23:28.562Z,0.78
2022-11-25T21:26:02.983Z,0.80
2022-11-25T21:28:32.346Z,0.81
2022-11-25T21:31:03.083Z,0.83
2022-11-25T21:33:34.893Z,0.85
2022-11-25T21:36:03.865Z,0.85
2022-11-25T21:38:32.419Z,0.85
2022-11-25T21:41:01.034Z,0.86
2022-11-25T21:43:30.843Z,0.86
2022-11-25T21:46:01.250Z,0.87
2022-11-25T21:48:30.657Z,0.88
2022-11-25T21:51:00.659Z,0.88
2022-11-25T21:53:33.182Z,0.88
2022-11-25T21:56:09.646Z,0.87
2022-11-25T21:58:38.897Z,0.86
2022-11-25T22:01:10.208Z,0.84
2022-11-25T22:03:39.939Z,0.82
2022-11-25T22:06:21.377Z,0.81
2022-11-25T22:08:49.663Z,0.81
2022-11-25T22:11:19.534Z,0.80
2022-11-25T22:13:49.412Z,0.79
2022-11-25T22:16:21.524Z,0.78
2022-11-25T22:18:49.917Z,0.77
2022-11-25T22:21:18.273Z,0.77
2022-11-25T22:23:46.714Z,0.79
2022-11-25T22:26:17.384Z,0.81
2022-11-25T22:28:49.919Z,0.82
2022-11-25T22:31:18.878Z,0.84
2022-11-25T22:33:47.977Z,0.85
2022-11-25T22:36:31.810Z,0.86
2022-11-25T22:39:08.731Z,0.85
2022-11-25T22:41:37.195Z,0.84
2022-11-25T22:44:05.858Z,0.83
2022-11-25T22:46:36.708Z,0.83
2022-11-25T22:49:05.228Z,0.82
2022-11-25T22:51:33.611Z,0.81
2022-11-25T22:54:02.187Z,0.81
2022-11-25T22:56:30.759Z,0.81
2022-11-25T22:59:00.519Z,0.81
2022-11-25T23:01:29.583Z,0.81
2022-11-25T23:03:58.362Z,0.81
2022-11-25T23:06:28.034Z,0.81
2022-11-25T23:08:56.344Z,0.80
2022-11-25T23:11:24.931Z,0.81
2022-11-25T23:13:53.650Z,0.81
2022-11-25T23:16:22.013Z,0.81
2022-11-25T23:18:50.576Z,0.83
2022-11-25T23:21:20.265Z,0.81
2022-11-25T23:23:48.605Z,0.80
2022-11-25T23:26:17.841Z,0.79
2022-11-25T23:28:46.144Z,0.79
2022-11-25T23:31:15.898Z,0.78
2022-11-25T23:33:45.914Z,0.78
2022-11-25T23:36:17.867Z,0.78
2022-11-25T23:38:49.802Z,0.78
2022-11-25T23:41:20.543Z,0.79
2022-11-25T23:43:49.100Z,0.79
2022-11-25T23:46:23.948Z,0.78
2022-11-25T23:48:56.240Z,0.78
2022-11-25T23:51:25.473Z,0.77
2022-11-25T23:53:55.500Z,0.77
2022-11-25T23:56:24.120Z,0.78
2022-11-25T23:58:52.476Z,0.79
